Seaexpressii — HO4619 — position and weather

sailwx.info

Track history (hours):
 
Tides and Currents Weather Stations Pressure Air Temp Water Temp Dewpoint Dewpoint Depression Visibility Wind Speed Wind Dir Waves Ship Positions

Seaexpressii

Last reported at 2014-Nov-21 10:33 UTC. Time now 2014-Nov-21 10:38 UTC.
Position N 26°04' W 080°08'.

Length 38 m; draft 2 m.

Type: Ship. MMSI: 356449000.

Date/timePositionNaut miles runAvg speedWind from/ knotsBaromVisibWave heightAir tempDewpointWater temp
2014-Nov-21 10:33N 26°04' W 080°08'0 0.0
2014-Nov-21 09:33N 26°04' W 080°08'0 0.0
2014-Nov-21 08:33N 26°04' W 080°08'0 0.0
2014-Nov-21 07:33N 26°04' W 080°08'0 0.0
2014-Nov-21 06:33N 26°04' W 080°08'0 0.0
2014-Nov-21 05:33N 26°04' W 080°08'0 0.1
2014-Nov-21 04:33N 26°04' W 080°08'0 0.0
2014-Nov-21 03:33N 26°04' W 080°08'0 0.0
2014-Nov-21 02:33N 26°04' W 080°08'0 0.4
2014-Nov-21 01:33N 26°04' W 080°07'6 6.5
2014-Nov-21 00:33N 26°07' W 080°01'9 8.7
2014-Nov-20 23:33N 26°10' W 079°52'9 9.0
2014-Nov-20 22:33N 26°12' W 079°42'9 9.4
2014-Nov-20 21:33N 26°15' W 079°32'11 0.6
2014-Nov-20 04:33N 26°25' W 079°38'9 8.9
2014-Nov-20 03:33N 26°20' W 079°47'9 8.9
2014-Nov-20 02:33N 26°14' W 079°54'9 8.8
2014-Nov-20 01:33N 26°08' W 080°01'7 6.8
2014-Nov-20 00:34N 26°04' W 080°07'1 0.9
2014-Nov-19 23:33N 26°04' W 080°08'0 0.0
2014-Nov-19 22:33N 26°04' W 080°08'0 0.0
2014-Nov-19 21:33N 26°04' W 080°08'0 0.0
2014-Nov-19 20:33N 26°04' W 080°08'0 0.0
2014-Nov-19 19:31N 26°04' W 080°08'0 0.0
2014-Nov-19 18:33N 26°04' W 080°08'0 0.0
2014-Nov-19 17:33N 26°04' W 080°08'0 0.0
2014-Nov-19 16:33N 26°04' W 080°08'0 0.0
2014-Nov-19 15:33N 26°04' W 080°08'0 0.0
2014-Nov-19 14:33N 26°04' W 080°08'0 0.0
2014-Nov-19 13:33N 26°04' W 080°08'0 0.0
2014-Nov-19 12:33N 26°04' W 080°08'0 0.0
2014-Nov-19 11:33N 26°04' W 080°08'0 0.0
2014-Nov-19 10:33N 26°04' W 080°08'0 0.0
2014-Nov-19 09:33N 26°04' W 080°08'0 0.0
2014-Nov-19 08:33N 26°04' W 080°08'0 0.0
2014-Nov-19 07:33N 26°04' W 080°08'0 0.0
2014-Nov-19 06:32N 26°04' W 080°08'0 0.0
2014-Nov-19 05:32N 26°04' W 080°08'0 0.0
2014-Nov-19 04:33N 26°04' W 080°08'0 0.0
2014-Nov-19 03:33N 26°04' W 080°08'0 0.0
2014-Nov-19 02:33N 26°04' W 080°08'0 0.1
2014-Nov-19 01:33N 26°04' W 080°08'0 0.0
2014-Nov-19 00:33N 26°04' W 080°08'0 0.0
2014-Nov-18 23:33N 26°04' W 080°08'0 0.4
2014-Nov-18 22:33N 26°04' W 080°07'7 6.5
2014-Nov-18 21:33N 26°04' W 080°00'9 9.4
2014-Nov-18 20:33N 26°01' W 079°50'1010.0
2014-Nov-18 19:33N 25°58' W 079°39'  
2014-Nov-16 07:32N 25°58' W 079°38'9 8.8
2014-Nov-16 06:33N 26°01' W 079°47'1010.0
2014-Nov-16 05:33N 26°03' W 079°58'8 8.4
2014-Nov-16 04:33N 26°04' W 080°07'1 1.1
2014-Nov-16 03:26N 26°04' W 080°08'0 0.0
2014-Nov-16 02:26N 26°04' W 080°08'0 0.0
2014-Nov-16 01:29N 26°04' W 080°08'0 0.0
2014-Nov-16 00:26N 26°04' W 080°08'0 0.0
2014-Nov-15 23:32N 26°04' W 080°08'0 0.0
2014-Nov-15 22:32N 26°04' W 080°08'0 0.0
2014-Nov-15 21:32N 26°04' W 080°08'0 0.0
2014-Nov-15 20:20N 26°04' W 080°08'0 0.0
2014-Nov-15 19:32N 26°04' W 080°08'0 0.0
2014-Nov-15 18:32N 26°04' W 080°08'0 0.0
2014-Nov-15 17:32N 26°04' W 080°08'0 0.0
2014-Nov-15 16:23N 26°04' W 080°08'0 0.0
2014-Nov-15 15:26N 26°04' W 080°08'0 0.0
2014-Nov-15 14:26N 26°04' W 080°08'0 0.0
2014-Nov-15 13:23N 26°04' W 080°08'0 0.0
2014-Nov-15 12:29N 26°04' W 080°08'0 0.0
2014-Nov-15 11:29N 26°04' W 080°08'0 0.0
2014-Nov-15 10:29N 26°04' W 080°08'0 0.0
2014-Nov-15 09:32N 26°04' W 080°08'0 0.0
2014-Nov-15 08:32N 26°04' W 080°08'0 0.0
2014-Nov-15 07:32N 26°04' W 080°08'0 0.0
2014-Nov-15 06:32N 26°04' W 080°08'0 0.0
2014-Nov-15 05:32N 26°04' W 080°08'0 0.0
2014-Nov-15 04:32N 26°04' W 080°08'0 0.0
2014-Nov-15 03:32N 26°04' W 080°08'0 0.0
2014-Nov-15 02:23N 26°04' W 080°08'0 0.0
2014-Nov-15 01:23N 26°04' W 080°08'0 0.0
2014-Nov-15 00:26N 26°04' W 080°08'0 0.0
2014-Nov-14 23:23N 26°04' W 080°08'0 0.0
2014-Nov-14 22:23N 26°04' W 080°08'0 0.0
2014-Nov-14 21:29N 26°04' W 080°08'0 0.0
2014-Nov-14 20:29N 26°04' W 080°08'0 0.0
2014-Nov-14 19:29N 26°04' W 080°08'0 0.0
2014-Nov-14 18:32N 26°04' W 080°08'0 0.0
2014-Nov-14 17:29N 26°04' W 080°08'0 0.0
2014-Nov-14 16:32N 26°04' W 080°08'0 0.0
2014-Nov-14 15:32N 26°04' W 080°08'0 0.0
2014-Nov-14 14:32N 26°04' W 080°08'0 0.0
2014-Nov-14 12:33N 26°04' W 080°08'0 0.0
2014-Nov-14 11:33N 26°04' W 080°08'0 0.0
2014-Nov-14 10:33N 26°04' W 080°08'0 0.0
2014-Nov-14 09:33N 26°04' W 080°08'0 0.0
2014-Nov-14 08:33N 26°04' W 080°08'0 0.0
2014-Nov-14 07:33N 26°04' W 080°08'0 0.0
2014-Nov-14 06:33N 26°04' W 080°08'0 0.0
2014-Nov-14 05:33N 26°04' W 080°08'0 0.0
2014-Nov-14 04:33N 26°04' W 080°08'0 0.0
2014-Nov-14 03:33N 26°04' W 080°08'0 0.0
2014-Nov-14 02:33N 26°04' W 080°08'0 0.0
2014-Nov-14 01:33N 26°04' W 080°08'0 0.0
2014-Nov-14 00:33N 26°04' W 080°08'0 0.0
2014-Nov-13 23:33N 26°04' W 080°08'1 1.1
2014-Nov-13 22:33N 26°04' W 080°07'8 7.7
2014-Nov-13 21:33N 26°07' W 079°59'10 9.6
2014-Nov-13 20:33N 26°10' W 079°49'9 8.8
2014-Nov-13 19:33N 26°13' W 079°39'2 0.2
2014-Nov-13 07:15N 26°14' W 079°37'6 9.2
2014-Nov-13 06:33N 26°12' W 079°44'9 9.4
2014-Nov-13 05:33N 26°09' W 079°54'10 9.5
2014-Nov-13 04:33N 26°06' W 080°04'4 3.9
2014-Nov-13 03:33N 26°04' W 080°08'0 0.0
2014-Nov-13 02:33N 26°04' W 080°08'0 0.0
2014-Nov-13 01:33N 26°04' W 080°08'0 0.0
2014-Nov-13 00:33N 26°04' W 080°08'0 0.0
2014-Nov-12 23:33N 26°04' W 080°08'0 0.0
2014-Nov-12 22:33N 26°04' W 080°08'1 0.7
2014-Nov-12 21:33N 26°04' W 080°07'9 8.6
2014-Nov-12 20:33N 26°07' W 079°58'9 9.2
2014-Nov-12 19:33N 26°11' W 079°49'9 8.8
2014-Nov-12 18:33N 26°13' W 079°39'24 0.9
2014-Nov-11 15:22N 26°05' W 080°04'910.7
2014-Nov-11 14:33N 26°03' W 079°55'1010.2
2014-Nov-11 13:33N 25°60' W 079°44'10 9.8
2014-Nov-11 12:33N 25°57' W 079°34'  
Track history (hours):
 
Tides and Currents Weather Stations Pressure Air Temp Water Temp Dewpoint Dewpoint Depression Visibility Wind Speed Wind Dir Waves Ship Positions

Seaexpressii

Last reported at 2014-Nov-21 10:33 UTC. Time now 2014-Nov-21 10:38 UTC.
Position N 26°04' W 080°08'.

Length 38 m; draft 2 m.

Type: Ship. MMSI: 356449000.

Date/timePositionNaut miles runAvg speedWind from/ knotsBaromVisibWave heightAir tempDewpointWater temp
2014-Nov-21 10:33N 26°04' W 080°08'0 0.0
2014-Nov-21 09:33N 26°04' W 080°08'0 0.0
2014-Nov-21 08:33N 26°04' W 080°08'0 0.0
2014-Nov-21 07:33N 26°04' W 080°08'0 0.0
2014-Nov-21 06:33N 26°04' W 080°08'0 0.0
2014-Nov-21 05:33N 26°04' W 080°08'0 0.1
2014-Nov-21 04:33N 26°04' W 080°08'0 0.0
2014-Nov-21 03:33N 26°04' W 080°08'0 0.0
2014-Nov-21 02:33N 26°04' W 080°08'0 0.4
2014-Nov-21 01:33N 26°04' W 080°07'6 6.5
2014-Nov-21 00:33N 26°07' W 080°01'9 8.7
2014-Nov-20 23:33N 26°10' W 079°52'9 9.0
2014-Nov-20 22:33N 26°12' W 079°42'9 9.4
2014-Nov-20 21:33N 26°15' W 079°32'11 0.6
2014-Nov-20 04:33N 26°25' W 079°38'9 8.9
2014-Nov-20 03:33N 26°20' W 079°47'9 8.9
2014-Nov-20 02:33N 26°14' W 079°54'9 8.8
2014-Nov-20 01:33N 26°08' W 080°01'7 6.8
2014-Nov-20 00:34N 26°04' W 080°07'1 0.9
2014-Nov-19 23:33N 26°04' W 080°08'0 0.0
2014-Nov-19 22:33N 26°04' W 080°08'0 0.0
2014-Nov-19 21:33N 26°04' W 080°08'0 0.0
2014-Nov-19 20:33N 26°04' W 080°08'0 0.0
2014-Nov-19 19:31N 26°04' W 080°08'0 0.0
2014-Nov-19 18:33N 26°04' W 080°08'0 0.0
2014-Nov-19 17:33N 26°04' W 080°08'0 0.0
2014-Nov-19 16:33N 26°04' W 080°08'0 0.0
2014-Nov-19 15:33N 26°04' W 080°08'0 0.0
2014-Nov-19 14:33N 26°04' W 080°08'0 0.0
2014-Nov-19 13:33N 26°04' W 080°08'0 0.0
2014-Nov-19 12:33N 26°04' W 080°08'0 0.0
2014-Nov-19 11:33N 26°04' W 080°08'0 0.0
2014-Nov-19 10:33N 26°04' W 080°08'0 0.0
2014-Nov-19 09:33N 26°04' W 080°08'0 0.0
2014-Nov-19 08:33N 26°04' W 080°08'0 0.0
2014-Nov-19 07:33N 26°04' W 080°08'0 0.0
2014-Nov-19 06:32N 26°04' W 080°08'0 0.0
2014-Nov-19 05:32N 26°04' W 080°08'0 0.0
2014-Nov-19 04:33N 26°04' W 080°08'0 0.0
2014-Nov-19 03:33N 26°04' W 080°08'0 0.0
2014-Nov-19 02:33N 26°04' W 080°08'0 0.1
2014-Nov-19 01:33N 26°04' W 080°08'0 0.0
2014-Nov-19 00:33N 26°04' W 080°08'0 0.0
2014-Nov-18 23:33N 26°04' W 080°08'0 0.4
2014-Nov-18 22:33N 26°04' W 080°07'7 6.5
2014-Nov-18 21:33N 26°04' W 080°00'9 9.4
2014-Nov-18 20:33N 26°01' W 079°50'1010.0
2014-Nov-18 19:33N 25°58' W 079°39'  
2014-Nov-16 07:32N 25°58' W 079°38'9 8.8
2014-Nov-16 06:33N 26°01' W 079°47'1010.0
2014-Nov-16 05:33N 26°03' W 079°58'8 8.4
2014-Nov-16 04:33N 26°04' W 080°07'1 1.1
2014-Nov-16 03:26N 26°04' W 080°08'0 0.0
2014-Nov-16 02:26N 26°04' W 080°08'0 0.0
2014-Nov-16 01:29N 26°04' W 080°08'0 0.0
2014-Nov-16 00:26N 26°04' W 080°08'0 0.0
2014-Nov-15 23:32N 26°04' W 080°08'0 0.0
2014-Nov-15 22:32N 26°04' W 080°08'0 0.0
2014-Nov-15 21:32N 26°04' W 080°08'0 0.0
2014-Nov-15 20:20N 26°04' W 080°08'0 0.0
2014-Nov-15 19:32N 26°04' W 080°08'0 0.0
2014-Nov-15 18:32N 26°04' W 080°08'0 0.0
2014-Nov-15 17:32N 26°04' W 080°08'0 0.0
2014-Nov-15 16:23N 26°04' W 080°08'0 0.0
2014-Nov-15 15:26N 26°04' W 080°08'0 0.0
2014-Nov-15 14:26N 26°04' W 080°08'0 0.0
2014-Nov-15 13:23N 26°04' W 080°08'0 0.0
2014-Nov-15 12:29N 26°04' W 080°08'0 0.0
2014-Nov-15 11:29N 26°04' W 080°08'0 0.0
2014-Nov-15 10:29N 26°04' W 080°08'0 0.0
2014-Nov-15 09:32N 26°04' W 080°08'0 0.0
2014-Nov-15 08:32N 26°04' W 080°08'0 0.0
2014-Nov-15 07:32N 26°04' W 080°08'0 0.0
2014-Nov-15 06:32N 26°04' W 080°08'0 0.0
2014-Nov-15 05:32N 26°04' W 080°08'0 0.0
2014-Nov-15 04:32N 26°04' W 080°08'0 0.0
2014-Nov-15 03:32N 26°04' W 080°08'0 0.0
2014-Nov-15 02:23N 26°04' W 080°08'0 0.0
2014-Nov-15 01:23N 26°04' W 080°08'0 0.0
2014-Nov-15 00:26N 26°04' W 080°08'0 0.0
2014-Nov-14 23:23N 26°04' W 080°08'0 0.0
2014-Nov-14 22:23N 26°04' W 080°08'0 0.0
2014-Nov-14 21:29N 26°04' W 080°08'0 0.0
2014-Nov-14 20:29N 26°04' W 080°08'0 0.0
2014-Nov-14 19:29N 26°04' W 080°08'0 0.0
2014-Nov-14 18:32N 26°04' W 080°08'0 0.0
2014-Nov-14 17:29N 26°04' W 080°08'0 0.0
2014-Nov-14 16:32N 26°04' W 080°08'0 0.0
2014-Nov-14 15:32N 26°04' W 080°08'0 0.0
2014-Nov-14 14:32N 26°04' W 080°08'0 0.0
2014-Nov-14 12:33N 26°04' W 080°08'0 0.0
2014-Nov-14 11:33N 26°04' W 080°08'0 0.0
2014-Nov-14 10:33N 26°04' W 080°08'0 0.0
2014-Nov-14 09:33N 26°04' W 080°08'0 0.0
2014-Nov-14 08:33N 26°04' W 080°08'0 0.0
2014-Nov-14 07:33N 26°04' W 080°08'0 0.0
2014-Nov-14 06:33N 26°04' W 080°08'0 0.0
2014-Nov-14 05:33N 26°04' W 080°08'0 0.0
2014-Nov-14 04:33N 26°04' W 080°08'0 0.0
2014-Nov-14 03:33N 26°04' W 080°08'0 0.0
2014-Nov-14 02:33N 26°04' W 080°08'0 0.0
2014-Nov-14 01:33N 26°04' W 080°08'0 0.0
2014-Nov-14 00:33N 26°04' W 080°08'0 0.0
2014-Nov-13 23:33N 26°04' W 080°08'1 1.1
2014-Nov-13 22:33N 26°04' W 080°07'8 7.7
2014-Nov-13 21:33N 26°07' W 079°59'10 9.6
2014-Nov-13 20:33N 26°10' W 079°49'9 8.8
2014-Nov-13 19:33N 26°13' W 079°39'2 0.2
2014-Nov-13 07:15N 26°14' W 079°37'6 9.2
2014-Nov-13 06:33N 26°12' W 079°44'9 9.4
2014-Nov-13 05:33N 26°09' W 079°54'10 9.5
2014-Nov-13 04:33N 26°06' W 080°04'4 3.9
2014-Nov-13 03:33N 26°04' W 080°08'0 0.0
2014-Nov-13 02:33N 26°04' W 080°08'0 0.0
2014-Nov-13 01:33N 26°04' W 080°08'0 0.0
2014-Nov-13 00:33N 26°04' W 080°08'0 0.0
2014-Nov-12 23:33N 26°04' W 080°08'0 0.0
2014-Nov-12 22:33N 26°04' W 080°08'1 0.7
2014-Nov-12 21:33N 26°04' W 080°07'9 8.6
2014-Nov-12 20:33N 26°07' W 079°58'9 9.2
2014-Nov-12 19:33N 26°11' W 079°49'9 8.8
2014-Nov-12 18:33N 26°13' W 079°39'24 0.9
2014-Nov-11 15:22N 26°05' W 080°04'910.7
2014-Nov-11 14:33N 26°03' W 079°55'1010.2
2014-Nov-11 13:33N 25°60' W 079°44'10 9.8
2014-Nov-11 12:33N 25°57' W 079°34'  

Dump ship's entire track history